Time;durP1;ratioP1;P1;durP2;ratioP2;P2;SDS_P1;SDS_P2;PMS_P1;PMS_P2;Temp;Humidity;BMP_temperature;BMP_pressure;BME280_temperature;BME280_humidity;BME280_pressure;Samples;Min_cycle;Max_cycle;Signal;HPM_P1;HPM_P2
2023/01/28 00:02:12;;;;;;;;;;;5.00;99.90;;;;;;5000935;28;19913;-79
2023/01/28 00:05:06;;;;;;;;;;;4.90;99.90;;;;;;5004500;28;19909;-79
2023/01/28 00:07:32;;;;;;;;;;;4.70;99.90;;;;;;5037210;28;19979;-79
2023/01/28 00:10:05;;;;;;;;;;;4.60;99.90;;;;;;5020847;28;20317;-79
2023/01/28 00:12:39;;;;;;;;;;;4.40;99.90;;;;;;5036991;28;19909;-77
2023/01/28 00:15:11;;;;;;;;;;;4.20;99.90;;;;;;5017650;28;20347;-79
2023/01/28 00:17:51;;;;;;;;;;;4.20;99.90;;;;;;5018873;28;19948;-78
2023/01/28 00:20:30;;;;;;;;;;;4.00;99.90;;;;;;5014804;28;19914;-79
2023/01/28 00:22:58;;;;;;;;;;;3.90;99.90;;;;;;5015433;28;19960;-79
2023/01/28 00:25:40;;;;;;;;;;;3.80;99.90;;;;;;5015871;28;19948;-79
2023/01/28 00:31:11;;;;;;;;;;;3.70;99.90;;;;;;5015127;28;19910;-79
2023/01/28 00:33:39;;;;;;;;;;;3.60;99.90;;;;;;4999780;28;19916;-79
2023/01/28 00:36:14;;;;;;;;;;;3.50;99.90;;;;;;5018041;28;19953;-79
2023/01/28 00:38:46;;;;;;;;;;;3.40;99.90;;;;;;5000095;28;19931;-79
2023/01/28 00:41:26;;;;;;;;;;;3.30;99.90;;;;;;5016289;28;19920;-82
2023/01/28 00:43:57;;;;;;;;;;;3.30;99.90;;;;;;4999418;28;19909;-79
2023/01/28 00:46:27;;;;;;;;;;;3.30;99.90;;;;;;5018367;28;19913;-79
2023/01/28 00:49:03;;;;;;;;;;;3.40;99.90;;;;;;4999508;28;19948;-79
2023/01/28 01:03:36;;;;;;;;;;;3.10;99.90;;;;;;4997829;28;19972;-79
2023/01/28 01:06:02;;;;;;;;;;;3.00;99.90;;;;;;4998023;28;19917;-79
2023/01/28 01:08:34;;;;;;;;;;;3.00;99.90;;;;;;5015981;28;19909;-79
2023/01/28 01:11:12;;;;;;;;;;;2.90;99.90;;;;;;4998931;28;19960;-78
2023/01/28 01:13:54;;;;;;;;;;;2.80;99.90;;;;;;5017104;28;19964;-79
2023/01/28 01:16:24;;;;;;;;;;;2.90;99.90;;;;;;5016815;28;19910;-81
2023/01/28 01:18:58;;;;;;;;;;;2.80;99.90;;;;;;4998473;28;19916;-81
2023/01/28 01:21:28;;;;;;;;;;;2.80;99.90;;;;;;4998465;28;19913;-78
2023/01/28 01:23:56;;;;;;;;;;;2.80;99.90;;;;;;4998660;28;19910;-79
2023/01/28 01:28:57;;;;;;;;;;;2.80;99.90;;;;;;5016798;28;19999;-79
2023/01/28 01:31:22;;;;;;;;;;;2.80;99.90;;;;;;4998740;28;19959;-78
2023/01/28 01:33:51;;;;;;;;;;;2.80;99.90;;;;;;4998356;28;20352;-78
2023/01/28 01:36:21;;;;;;;;;;;2.80;99.90;;;;;;5016028;28;19916;-79
2023/01/28 01:38:59;;;;;;;;;;;2.80;99.90;;;;;;4998356;28;19909;-79
2023/01/28 01:41:33;;;;;;;;;;;2.90;99.90;;;;;;4997768;28;19917;-79
2023/01/28 01:44:01;;;;;;;;;;;3.00;99.90;;;;;;5015394;28;19909;-79
2023/01/28 01:46:39;;;;;;;;;;;3.10;99.90;;;;;;4998544;28;19917;-79
2023/01/28 01:49:15;;;;;;;;;;;3.20;99.90;;;;;;5016205;28;19990;-79
2023/01/28 01:51:50;;;;;;;;;;;3.40;99.90;;;;;;5016084;28;19963;-79
2023/01/28 01:54:19;;;;;;;;;;;3.50;99.90;;;;;;4997759;28;20378;-79
2023/01/28 01:56:46;;;;;;;;;;;3.60;99.90;;;;;;4998007;28;20367;-79
2023/01/28 01:59:16;;;;;;;;;;;3.60;99.90;;;;;;4997775;28;20000;-79
2023/01/28 02:01:44;;;;;;;;;;;3.60;99.90;;;;;;4997449;28;20298;-79
2023/01/28 02:04:25;;;;;;;;;;;3.60;99.90;;;;;;4997981;28;20338;-79
2023/01/28 02:06:51;;;;;;;;;;;3.50;99.90;;;;;;4998075;28;19917;-79
2023/01/28 02:09:22;;;;;;;;;;;3.40;99.90;;;;;;5015738;28;19944;-82
2023/01/28 02:12:15;;;;;;;;;;;;;;;;;;;;;
2023/01/28 02:14:45;;;;;;;;;;;3.30;99.90;;;;;;5015057;28;19910;-79
2023/01/28 02:17:13;;;;;;;;;;;3.20;99.90;;;;;;4997161;28;20362;-78
2023/01/28 02:19:41;;;;;;;;;;;3.20;99.90;;;;;;5015129;28;19910;-79
2023/01/28 02:22:36;;;;;;;;;;;3.20;99.90;;;;;;4996943;28;19916;-81
2023/01/28 02:25:31;;;;;;;;;;;3.20;99.90;;;;;;5015630;28;19909;-79
2023/01/28 02:28:22;;;;;;;;;;;3.30;99.90;;;;;;4997160;28;20294;-78
2023/01/28 02:30:57;;;;;;;;;;;3.30;99.90;;;;;;4996983;28;19913;-78
2023/01/28 02:33:25;;;;;;;;;;;3.40;99.90;;;;;;4996746;28;19913;-78
2023/01/28 02:35:54;;;;;;;;;;;3.40;99.90;;;;;;5012974;28;20358;-79
2023/01/28 02:38:22;;;;;;;;;;;3.40;99.90;;;;;;4997092;28;19917;-79
2023/01/28 02:41:05;;;;;;;;;;;3.40;99.90;;;;;;5014822;28;19913;-79
2023/01/28 02:43:34;;;;;;;;;;;3.50;99.90;;;;;;4997243;28;20314;-78
2023/01/28 02:48:45;;;;;;;;;;;3.50;99.90;;;;;;5015396;28;19983;-79
2023/01/28 02:51:37;;;;;;;;;;;3.50;99.90;;;;;;5013248;28;20359;-78
2023/01/28 02:54:08;;;;;;;;;;;3.60;99.90;;;;;;4993658;28;20362;-79
2023/01/28 02:56:40;;;;;;;;;;;3.70;99.90;;;;;;5014733;28;19913;-78
2023/01/28 02:59:29;;;;;;;;;;;3.70;99.90;;;;;;5015168;28;19917;-78
2023/01/28 03:02:00;;;;;;;;;;;3.80;99.90;;;;;;5017309;28;19913;-79
2023/01/28 03:04:34;;;;;;;;;;;3.90;99.90;;;;;;5016809;28;19916;-79
2023/01/28 03:07:11;;;;;;;;;;;3.80;99.90;;;;;;5017050;28;19909;-79
2023/01/28 03:09:38;;;;;;;;;;;3.90;99.90;;;;;;5017226;28;19909;-79
2023/01/28 03:37:20;;;;;;;;;;;4.30;99.90;;;;;;5018073;28;19932;-79
2023/01/28 03:39:45;;;;;;;;;;;4.40;99.90;;;;;;5018113;28;19976;-79
2023/01/28 03:42:15;;;;;;;;;;;4.40;99.90;;;;;;5035621;28;20033;-79
2023/01/28 03:44:50;;;;;;;;;;;4.40;99.90;;;;;;5034482;28;19955;-79
2023/01/28 03:47:19;;;;;;;;;;;4.40;99.90;;;;;;5018096;28;19933;-79
2023/01/28 03:49:48;;;;;;;;;;;4.50;99.90;;;;;;5017571;28;19921;-79
2023/01/28 03:52:14;;;;;;;;;;;4.50;99.90;;;;;;5017475;28;19975;-79
2023/01/28 03:54:43;;;;;;;;;;;4.50;99.90;;;;;;5017373;28;19909;-79
2023/01/28 03:57:08;;;;;;;;;;;4.50;99.90;;;;;;5017668;28;19909;-79
2023/01/28 03:59:34;;;;;;;;;;;4.50;99.90;;;;;;5035737;28;20388;-79
2023/01/28 04:02:02;;;;;;;;;;;4.60;99.90;;;;;;5017610;28;20290;-79
2023/01/28 04:04:28;;;;;;;;;;;4.50;99.90;;;;;;5035130;28;19916;-79
2023/01/28 04:06:54;;;;;;;;;;;4.50;99.90;;;;;;5017152;28;19916;-79
2023/01/28 04:09:20;;;;;;;;;;;4.50;99.90;;;;;;5038408;28;19909;-79
2023/01/28 04:11:45;;;;;;;;;;;4.50;99.90;;;;;;5020411;28;20267;-79
2023/01/28 04:14:16;;;;;;;;;;;4.50;99.90;;;;;;5020376;28;19916;-79
2023/01/28 04:16:42;;;;;;;;;;;4.50;99.90;;;;;;5037058;28;19920;-79
2023/01/28 04:19:08;;;;;;;;;;;4.60;99.90;;;;;;5020305;28;19909;-79
2023/01/28 04:21:36;;;;;;;;;;;4.50;99.90;;;;;;5037794;28;19975;-79
2023/01/28 04:24:02;;;;;;;;;;;4.50;99.90;;;;;;5038086;28;20290;-79
2023/01/28 04:26:28;;;;;;;;;;;4.50;99.90;;;;;;5019817;28;19909;-79
2023/01/28 04:28:53;;;;;;;;;;;4.50;99.90;;;;;;5020450;28;19909;-79
2023/01/28 04:31:22;;;;;;;;;;;4.50;99.90;;;;;;5020177;28;20302;-79
2023/01/28 04:33:48;;;;;;;;;;;4.50;99.90;;;;;;5019538;28;19913;-79
2023/01/28 04:36:14;;;;;;;;;;;4.60;99.90;;;;;;5037665;28;19915;-79
2023/01/28 04:38:39;;;;;;;;;;;4.60;99.90;;;;;;5019503;28;19909;-79
2023/01/28 04:41:05;;;;;;;;;;;4.60;99.90;;;;;;5018930;28;19963;-79
2023/01/28 04:43:30;;;;;;;;;;;4.60;99.90;;;;;;5037554;28;19909;-79
2023/01/28 04:45:56;;;;;;;;;;;4.60;99.90;;;;;;5019673;28;20004;-78
2023/01/28 04:48:21;;;;;;;;;;;4.60;99.90;;;;;;5037805;28;19925;-78
2023/01/28 04:50:47;;;;;;;;;;;4.50;99.90;;;;;;5019265;28;19913;-80
2023/01/28 04:53:15;;;;;;;;;;;4.60;99.90;;;;;;5036588;28;19909;-79
2023/01/28 04:55:40;;;;;;;;;;;4.50;99.90;;;;;;5027058;28;19910;-79
2023/01/28 04:58:06;;;;;;;;;;;4.50;99.90;;;;;;5018904;28;19916;-79
2023/01/28 05:00:32;;;;;;;;;;;4.60;99.90;;;;;;5036974;28;19975;-79
2023/01/28 05:02:57;;;;;;;;;;;4.60;99.90;;;;;;5035337;28;20310;-79
2023/01/28 05:05:23;;;;;;;;;;;4.60;99.90;;;;;;5018544;28;19920;-79
2023/01/28 05:07:53;;;;;;;;;;;4.50;99.90;;;;;;5019210;28;19909;-79
2023/01/28 05:10:18;;;;;;;;;;;4.50;99.90;;;;;;5036885;28;19909;-79
2023/01/28 05:12:46;;;;;;;;;;;4.50;99.90;;;;;;5018199;28;19935;-79
2023/01/28 05:15:12;;;;;;;;;;;4.50;99.90;;;;;;5018733;28;20371;-78
2023/01/28 05:17:37;;;;;;;;;;;4.50;99.90;;;;;;5018316;28;19910;-79
2023/01/28 05:20:04;;;;;;;;;;;4.40;99.90;;;;;;5036412;28;20349;-79
2023/01/28 05:22:32;;;;;;;;;;;4.40;99.90;;;;;;5018398;28;19980;-79
2023/01/28 05:25:02;;;;;;;;;;;4.40;99.90;;;;;;5018307;28;19910;-79
2023/01/28 05:27:28;;;;;;;;;;;4.40;99.90;;;;;;5018125;28;19916;-81
2023/01/28 05:29:56;;;;;;;;;;;4.40;99.90;;;;;;5017672;28;19913;-79
2023/01/28 05:32:22;;;;;;;;;;;4.40;99.90;;;;;;5017699;28;19913;-80
2023/01/28 05:34:47;;;;;;;;;;;4.40;99.90;;;;;;5017309;28;20438;-79
2023/01/28 05:37:13;;;;;;;;;;;4.40;99.90;;;;;;5017722;28;20283;-80
2023/01/28 05:39:38;;;;;;;;;;;4.40;99.90;;;;;;5035579;28;19909;-81
2023/01/28 05:42:04;;;;;;;;;;;4.40;99.90;;;;;;5017542;28;19917;-80
2023/01/28 05:44:29;;;;;;;;;;;4.40;99.90;;;;;;5017147;28;19909;-80
2023/01/28 05:46:57;;;;;;;;;;;4.40;99.90;;;;;;5034842;28;19913;-80
2023/01/28 05:49:25;;;;;;;;;;;4.40;99.90;;;;;;5035187;28;19916;-79
2023/01/28 05:51:53;;;;;;;;;;;4.40;99.90;;;;;;5017107;28;19916;-80
2023/01/28 05:54:18;;;;;;;;;;;4.40;99.90;;;;;;5035087;28;19909;-82
2023/01/28 05:56:46;;;;;;;;;;;4.30;99.90;;;;;;5016903;28;19913;-79
2023/01/28 05:59:12;;;;;;;;;;;4.30;99.90;;;;;;5016847;28;19909;-80
2023/01/28 06:01:37;;;;;;;;;;;4.30;99.90;;;;;;5016732;28;19913;-81
2023/01/28 06:04:03;;;;;;;;;;;4.30;99.90;;;;;;5016441;28;19988;-80
2023/01/28 06:06:31;;;;;;;;;;;4.30;99.90;;;;;;5017057;28;19916;-78
2023/01/28 06:08:59;;;;;;;;;;;4.30;99.90;;;;;;5016885;28;19920;-78
2023/01/28 06:11:24;;;;;;;;;;;4.30;99.90;;;;;;5016369;28;19913;-78
2023/01/28 06:13:52;;;;;;;;;;;4.40;99.90;;;;;;5034873;28;20290;-79
2023/01/28 06:16:20;;;;;;;;;;;4.40;99.90;;;;;;5016920;28;19963;-78
2023/01/28 06:21:43;;;;;;;;;;;4.30;99.90;;;;;;5002513;28;19917;-79
2023/01/28 06:24:08;;;;;;;;;;;4.30;99.90;;;;;;5016159;28;20001;-78
2023/01/28 06:26:34;;;;;;;;;;;4.30;99.90;;;;;;5034191;28;19913;-79
2023/01/28 06:28:59;;;;;;;;;;;4.30;99.90;;;;;;5033149;28;19916;-78
2023/01/28 06:31:25;;;;;;;;;;;4.40;99.90;;;;;;5032364;28;19960;-78
2023/01/28 06:33:51;;;;;;;;;;;4.30;99.90;;;;;;5016598;28;19909;-78
2023/01/28 06:36:16;;;;;;;;;;;4.30;99.90;;;;;;5016028;28;19963;-79
2023/01/28 06:38:42;;;;;;;;;;;4.40;99.90;;;;;;5016183;28;19916;-79
2023/01/28 06:41:07;;;;;;;;;;;4.30;99.90;;;;;;5032361;28;20004;-79
2023/01/28 06:43:33;;;;;;;;;;;4.30;99.90;;;;;;5016899;28;19909;-79
2023/01/28 06:46:02;;;;;;;;;;;4.30;99.90;;;;;;5034447;28;19909;-79
2023/01/28 06:48:28;;;;;;;;;;;4.30;99.90;;;;;;5015858;28;20331;-78
2023/01/28 06:50:53;;;;;;;;;;;4.30;99.90;;;;;;5015747;28;19952;-79
2023/01/28 06:53:19;;;;;;;;;;;4.30;99.90;;;;;;5033869;28;20402;-78
2023/01/28 06:55:44;;;;;;;;;;;4.30;99.90;;;;;;5015584;28;19991;-79
2023/01/28 06:58:10;;;;;;;;;;;4.30;99.90;;;;;;5033624;28;20382;-79
2023/01/28 07:00:38;;;;;;;;;;;4.30;99.90;;;;;;5033239;28;20012;-82
2023/01/28 07:03:07;;;;;;;;;;;4.30;99.90;;;;;;5033263;28;20395;-81
2023/01/28 07:05:37;;;;;;;;;;;4.30;99.90;;;;;;5015598;28;19909;-80
2023/01/28 07:08:03;;;;;;;;;;;4.30;99.90;;;;;;5015497;28;20016;-81
2023/01/28 07:10:28;;;;;;;;;;;4.20;99.90;;;;;;5015633;28;19964;-80
2023/01/28 07:12:56;;;;;;;;;;;4.20;99.90;;;;;;5014828;28;19913;-79
2023/01/28 07:15:27;;;;;;;;;;;4.30;99.90;;;;;;5015533;28;20382;-80
2023/01/28 07:18:17;;;;;;;;;;;4.20;99.90;;;;;;5017035;28;19996;-80
2023/01/28 07:20:45;;;;;;;;;;;4.20;99.90;;;;;;5016813;28;19914;-81
2023/01/28 07:23:11;;;;;;;;;;;4.30;99.90;;;;;;5033737;28;20331;-80
2023/01/28 07:25:36;;;;;;;;;;;4.30;99.90;;;;;;5017046;28;19944;-80
2023/01/28 07:28:02;;;;;;;;;;;4.20;99.90;;;;;;5033379;28;20358;-79
2023/01/28 07:30:27;;;;;;;;;;;4.20;99.90;;;;;;5016220;28;19909;-80
2023/01/28 07:32:57;;;;;;;;;;;4.20;99.90;;;;;;5015006;28;19913;-79
2023/01/28 07:35:28;;;;;;;;;;;4.30;99.90;;;;;;5015249;28;19916;-79
2023/01/28 07:38:00;;;;;;;;;;;4.30;99.90;;;;;;5033156;28;19949;-78
2023/01/28 07:40:27;;;;;;;;;;;4.30;99.90;;;;;;5032730;28;20004;-79
2023/01/28 07:42:54;;;;;;;;;;;4.20;99.90;;;;;;5033927;28;20012;-79
2023/01/28 07:45:19;;;;;;;;;;;4.20;99.90;;;;;;5036695;28;19909;-80
2023/01/28 07:47:52;;;;;;;;;;;4.30;99.90;;;;;;5036561;28;20008;-79
2023/01/28 07:50:27;;;;;;;;;;;4.20;99.90;;;;;;5019552;28;19909;-80
2023/01/28 07:52:56;;;;;;;;;;;4.30;99.90;;;;;;5020526;28;19909;-80
2023/01/28 07:55:22;;;;;;;;;;;4.30;99.90;;;;;;5021122;28;20363;-80
2023/01/28 07:57:48;;;;;;;;;;;4.30;99.90;;;;;;5039899;28;20270;-80
2023/01/28 08:00:16;;;;;;;;;;;4.40;99.90;;;;;;5023367;28;19971;-79
2023/01/28 08:02:45;;;;;;;;;;;4.40;99.90;;;;;;5022568;28;19955;-79
2023/01/28 08:05:27;;;;;;;;;;;4.40;99.90;;;;;;5040603;28;20297;-79
2023/01/28 08:11:58;;;;;;;;;;;;;;;;;;;;;
2023/01/28 08:24:15;;;;;;;;;;;4.40;99.90;;;;;;4929265;29;19922;-82
2023/01/28 08:26:41;;;;;;;;;;;4.50;99.90;;;;;;4925882;29;19919;-83
2023/01/28 08:29:06;;;;;;;;;;;4.50;99.90;;;;;;5036361;28;19963;-82
2023/01/28 08:31:32;;;;;;;;;;;4.60;99.90;;;;;;5019806;28;19919;-83
2023/01/28 08:33:57;;;;;;;;;;;4.60;99.90;;;;;;5038382;28;19948;-80
2023/01/28 08:36:23;;;;;;;;;;;4.60;99.90;;;;;;5018655;28;19913;-80
2023/01/28 08:38:53;;;;;;;;;;;4.60;99.90;;;;;;5021078;28;19945;-81
2023/01/28 08:41:22;;;;;;;;;;;4.50;99.90;;;;;;5020613;28;20004;-81
2023/01/28 08:43:47;;;;;;;;;;;4.50;99.90;;;;;;5020719;28;19924;-81
2023/01/28 08:46:13;;;;;;;;;;;4.40;99.90;;;;;;5037883;28;20373;-80
2023/01/28 08:48:39;;;;;;;;;;;4.30;99.90;;;;;;5022518;28;19917;-80
2023/01/28 08:51:04;;;;;;;;;;;4.30;99.90;;;;;;5037442;28;20393;-80
2023/01/28 08:53:30;;;;;;;;;;;4.30;99.90;;;;;;5037554;28;19992;-80
2023/01/28 08:55:55;;;;;;;;;;;4.40;99.90;;;;;;5037937;28;19916;-80
2023/01/28 08:58:21;;;;;;;;;;;4.30;99.90;;;;;;5020445;28;19920;-78
2023/01/28 09:00:47;;;;;;;;;;;4.30;99.90;;;;;;5020766;28;19964;-80
2023/01/28 09:03:12;;;;;;;;;;;4.30;99.90;;;;;;5037889;28;19913;-80
2023/01/28 09:05:38;;;;;;;;;;;4.40;99.90;;;;;;5020242;28;19916;-81
2023/01/28 09:08:05;;;;;;;;;;;4.40;99.90;;;;;;5018874;28;19913;-80
2023/01/28 09:10:32;;;;;;;;;;;4.50;99.90;;;;;;5022187;28;19945;-83
2023/01/28 09:12:58;;;;;;;;;;;4.40;99.90;;;;;;5019302;28;19961;-83
2023/01/28 09:15:24;;;;;;;;;;;4.40;99.90;;;;;;5020771;28;19913;-82
2023/01/28 09:17:49;;;;;;;;;;;4.50;99.90;;;;;;5021043;28;19913;-82
2023/01/28 09:20:15;;;;;;;;;;;4.50;99.90;;;;;;5029195;28;19920;-83
2023/01/28 09:22:40;;;;;;;;;;;4.50;99.90;;;;;;5037898;28;20330;-83
2023/01/28 09:25:06;;;;;;;;;;;4.50;99.90;;;;;;5038241;28;19910;-79
2023/01/28 09:27:32;;;;;;;;;;;4.50;99.90;;;;;;5038241;28;19913;-81
2023/01/28 09:29:57;;;;;;;;;;;4.60;99.90;;;;;;5037847;28;19913;-81
2023/01/28 09:32:23;;;;;;;;;;;4.50;99.90;;;;;;5038012;28;19941;-81
2023/01/28 09:34:49;;;;;;;;;;;4.50;99.90;;;;;;5037073;28;20338;-81
2023/01/28 09:37:14;;;;;;;;;;;4.50;99.90;;;;;;5037614;28;19913;-81
2023/01/28 09:39:40;;;;;;;;;;;4.50;99.90;;;;;;5036388;28;20016;-81
2023/01/28 09:42:41;;;;;;;;;;;4.60;99.90;;;;;;5019023;28;19913;-81
2023/01/28 09:45:06;;;;;;;;;;;4.40;99.90;;;;;;4995040;28;19910;-81
2023/01/28 09:47:35;;;;;;;;;;;4.40;99.90;;;;;;5010928;28;20013;-82
2023/01/28 09:50:03;;;;;;;;;;;4.40;99.90;;;;;;5019651;28;19913;-80
2023/01/28 09:52:32;;;;;;;;;;;4.50;99.90;;;;;;5038065;28;20418;-83
2023/01/28 09:55:10;;;;;;;;;;;4.50;99.90;;;;;;5038005;28;19917;-82
2023/01/28 09:57:37;;;;;;;;;;;4.60;99.90;;;;;;5037408;28;19915;-83
2023/01/28 10:00:09;;;;;;;;;;;4.80;99.90;;;;;;5019034;28;19909;-82
2023/01/28 10:02:47;;;;;;;;;;;4.90;99.90;;;;;;5035837;28;19955;-82
2023/01/28 10:05:16;;;;;;;;;;;5.00;99.90;;;;;;5017923;28;19909;-81
2023/01/28 10:07:44;;;;;;;;;;;5.00;99.90;;;;;;5019486;28;19957;-82
2023/01/28 10:10:13;;;;;;;;;;;5.00;99.90;;;;;;5018952;28;19913;-82
2023/01/28 10:12:39;;;;;;;;;;;4.80;99.90;;;;;;5017637;28;19932;-82
2023/01/28 10:15:15;;;;;;;;;;;4.90;99.90;;;;;;5017732;28;20283;-80
2023/01/28 10:17:44;;;;;;;;;;;4.80;99.90;;;;;;5018346;28;20286;-83
2023/01/28 10:20:09;;;;;;;;;;;4.80;99.90;;;;;;5036481;28;19917;-80
2023/01/28 10:22:38;;;;;;;;;;;4.90;99.90;;;;;;5019013;28;19909;-81
2023/01/28 10:25:14;;;;;;;;;;;4.90;99.90;;;;;;5034792;28;19920;-81
2023/01/28 10:27:39;;;;;;;;;;;4.70;99.90;;;;;;5033963;28;19909;-80
2023/01/28 10:30:18;;;;;;;;;;;4.70;99.90;;;;;;5018086;28;19920;-80
2023/01/28 10:32:52;;;;;;;;;;;4.80;99.90;;;;;;5018152;28;19920;-81
2023/01/28 10:35:18;;;;;;;;;;;4.80;99.90;;;;;;5045429;28;19909;-81
2023/01/28 10:37:43;;;;;;;;;;;4.50;99.90;;;;;;5019133;28;19920;-79
2023/01/28 10:40:12;;;;;;;;;;;4.60;99.90;;;;;;5038160;28;19910;-79
2023/01/28 10:42:38;;;;;;;;;;;4.80;99.90;;;;;;5019471;28;19909;-81
2023/01/28 10:45:24;;;;;;;;;;;4.80;99.90;;;;;;5037744;28;20317;-79
2023/01/28 10:47:50;;;;;;;;;;;4.90;99.90;;;;;;5019207;28;20381;-81
2023/01/28 10:50:23;;;;;;;;;;;4.80;99.90;;;;;;5035383;28;19963;-81
2023/01/28 10:52:56;;;;;;;;;;;4.90;99.90;;;;;;5036954;28;19909;-81
2023/01/28 10:55:22;;;;;;;;;;;5.10;99.90;;;;;;5036697;28;19913;-81
2023/01/28 10:57:47;;;;;;;;;;;4.90;99.90;;;;;;5019285;28;19909;-81
2023/01/28 11:00:19;;;;;;;;;;;4.90;99.90;;;;;;5019409;28;20012;-81
2023/01/28 11:02:46;;;;;;;;;;;5.00;99.90;;;;;;5037313;28;20004;-82
2023/01/28 11:05:17;;;;;;;;;;;5.00;99.90;;;;;;5019247;28;19909;-81
2023/01/28 11:07:43;;;;;;;;;;;5.10;99.90;;;;;;5037598;28;19909;-81
2023/01/28 11:10:44;;;;;;;;;;;5.00;99.90;;;;;;5019291;28;20274;-81
2023/01/28 11:13:29;;;;;;;;;;;5.00;99.90;;;;;;4974901;28;19977;-81
2023/01/28 11:15:59;;;;;;;;;;;5.00;99.90;;;;;;5014405;28;19975;-79
2023/01/28 11:18:27;;;;;;;;;;;4.80;99.90;;;;;;5041084;28;19987;-81
2023/01/28 11:20:55;;;;;;;;;;;4.70;99.90;;;;;;5022628;28;19940;-80
2023/01/28 11:23:23;;;;;;;;;;;4.90;99.90;;;;;;5022123;28;20360;-81
2023/01/28 11:25:58;;;;;;;;;;;5.10;99.90;;;;;;5082857;22;19929;-84
2023/01/28 11:28:24;;;;;;;;;;;5.00;99.90;;;;;;5038496;28;19909;-84
2023/01/28 11:30:51;;;;;;;;;;;5.20;99.90;;;;;;5038505;28;19916;-83
2023/01/28 11:33:18;;;;;;;;;;;5.30;99.90;;;;;;5038335;28;19915;-85
2023/01/28 11:35:57;;;;;;;;;;;5.40;99.90;;;;;;5051988;28;19909;-83
2023/01/28 11:38:24;;;;;;;;;;;5.50;99.90;;;;;;5058208;28;20202;-85
2023/01/28 11:40:51;;;;;;;;;;;5.60;99.90;;;;;;5058170;28;19963;-83
2023/01/28 11:43:17;;;;;;;;;;;5.60;99.90;;;;;;5058044;28;19909;-84
2023/01/28 11:45:49;;;;;;;;;;;5.60;99.90;;;;;;5057958;28;19908;-84
2023/01/28 11:48:33;;;;;;;;;;;5.60;99.90;;;;;;5076184;28;20034;-84
2023/01/28 11:51:03;;;;;;;;;;;5.40;99.90;;;;;;5075630;28;19912;-85
2023/01/28 11:53:28;;;;;;;;;;;5.40;99.90;;;;;;5076404;28;20002;-84
2023/01/28 11:56:09;;;;;;;;;;;5.50;99.90;;;;;;5057943;28;20365;-83
2023/01/28 11:58:55;;;;;;;;;;;5.40;99.90;;;;;;5057964;28;19995;-84
2023/01/28 12:01:30;;;;;;;;;;;5.30;99.90;;;;;;5057106;28;19955;-85
2023/01/28 12:04:11;;;;;;;;;;;5.30;99.90;;;;;;5057587;28;19909;-83
2023/01/28 12:06:46;;;;;;;;;;;5.20;99.90;;;;;;5074431;28;20448;-84
2023/01/28 12:09:14;;;;;;;;;;;5.40;99.90;;;;;;5057826;28;19908;-84
2023/01/28 12:14:32;;;;;;;;;;;5.40;99.90;;;;;;5075648;28;19915;-83
2023/01/28 12:17:02;;;;;;;;;;;5.40;99.90;;;;;;5057579;28;20270;-84
2023/01/28 12:19:27;;;;;;;;;;;5.40;99.90;;;;;;5075506;28;19909;-85
2023/01/28 12:22:07;;;;;;;;;;;5.60;99.90;;;;;;5057264;28;19912;-85
2023/01/28 12:24:38;;;;;;;;;;;5.60;99.90;;;;;;5057202;28;19913;-83
2023/01/28 12:27:11;;;;;;;;;;;5.60;99.90;;;;;;5057598;28;19913;-83
2023/01/28 12:29:46;;;;;;;;;;;5.70;99.90;;;;;;5056704;28;20022;-84
2023/01/28 12:32:37;;;;;;;;;;;5.70;99.90;;;;;;5057196;28;19908;-82
2023/01/28 12:35:22;;;;;;;;;;;5.60;99.90;;;;;;5057413;28;19909;-83
2023/01/28 12:37:50;;;;;;;;;;;5.60;99.90;;;;;;5075360;28;19955;-83
2023/01/28 12:40:38;;;;;;;;;;;5.60;99.90;;;;;;5057164;28;19955;-82
2023/01/28 12:43:12;;;;;;;;;;;5.60;99.90;;;;;;5075127;28;19912;-83
2023/01/28 12:45:39;;;;;;;;;;;5.50;99.90;;;;;;5075080;28;19912;-82
2023/01/28 12:48:14;;;;;;;;;;;5.50;99.90;;;;;;5057221;28;20254;-83
2023/01/28 12:50:44;;;;;;;;;;;5.50;99.90;;;;;;5057095;28;20281;-83
2023/01/28 12:53:32;;;;;;;;;;;5.60;99.90;;;;;;5056872;28;19909;-81
2023/01/28 12:56:14;;;;;;;;;;;5.70;99.90;;;;;;5029190;28;20011;-82
2023/01/28 12:58:40;;;;;;;;;;;5.60;99.90;;;;;;5057148;28;19993;-82
2023/01/28 13:01:08;;;;;;;;;;;5.70;99.90;;;;;;5050224;28;19956;-82
2023/01/28 13:03:37;;;;;;;;;;;5.70;99.90;;;;;;5048319;28;19909;-83
2023/01/28 13:06:29;;;;;;;;;;;5.80;99.90;;;;;;5058832;28;19912;-82
2023/01/28 13:09:12;;;;;;;;;;;5.90;99.90;;;;;;5074676;28;19908;-83
2023/01/28 13:11:38;;;;;;;;;;;6.10;99.90;;;;;;5073639;28;19916;-83
2023/01/28 13:14:04;;;;;;;;;;;6.40;99.90;;;;;;5058314;28;20417;-84
2023/01/28 13:16:30;;;;;;;;;;;6.50;99.90;;;;;;5057952;28;19908;-84
2023/01/28 13:19:25;;;;;;;;;;;6.70;99.90;;;;;;5058206;28;19943;-84
2023/01/28 13:21:50;;;;;;;;;;;6.70;99.90;;;;;;5041472;28;19920;-83
2023/01/28 13:24:18;;;;;;;;;;;6.80;99.90;;;;;;5057752;28;19909;-84
2023/01/28 13:26:45;;;;;;;;;;;6.80;99.90;;;;;;5076678;28;19912;-83
2023/01/28 13:29:13;;;;;;;;;;;6.90;99.90;;;;;;5077033;28;19909;-84
2023/01/28 13:31:43;;;;;;;;;;;7.10;99.90;;;;;;5076365;28;19962;-84
2023/01/28 13:34:24;;;;;;;;;;;7.30;99.90;;;;;;5057740;28;19959;-85
2023/01/28 13:36:50;;;;;;;;;;;8.60;99.90;;;;;;5076449;28;19916;-84
2023/01/28 13:39:16;;;;;;;;;;;10.80;95.50;;;;;;5057897;28;20398;-85
2023/01/28 13:41:48;;;;;;;;;;;12.50;86.80;;;;;;5073964;28;19923;-85
2023/01/28 13:44:19;;;;;;;;;;;13.10;78.10;;;;;;5071600;28;20007;-83
2023/01/28 13:46:45;;;;;;;;;;;13.60;70.90;;;;;;5060240;28;19912;-84
2023/01/28 13:49:14;;;;;;;;;;;14.10;67.60;;;;;;5056552;28;19916;-83
2023/01/28 13:51:44;;;;;;;;;;;14.70;61.40;;;;;;5055870;28;20303;-84
2023/01/28 13:56:41;;;;;;;;;;;13.40;58.30;;;;;;5048060;22;19939;-84
2023/01/28 13:59:38;;;;;;;;;;;12.40;59.30;;;;;;5042985;28;20004;-86
2023/01/28 14:02:10;;;;;;;;;;;11.60;60.30;;;;;;5008162;28;20067;-86
2023/01/28 14:04:35;;;;;;;;;;;10.70;61.50;;;;;;5056595;28;20369;-82
2023/01/28 14:07:01;;;;;;;;;;;10.10;64.50;;;;;;5052477;28;19909;-84
2023/01/28 14:09:33;;;;;;;;;;;9.50;66.70;;;;;;5044933;28;19909;-85
2023/01/28 14:12:17;;;;;;;;;;;9.10;68.80;;;;;;5072577;28;19908;-85
2023/01/28 14:15:03;;;;;;;;;;;8.60;73.80;;;;;;5070706;28;19984;-86
2023/01/28 14:17:44;;;;;;;;;;;8.30;78.80;;;;;;5036763;28;19909;-86
2023/01/28 14:20:36;;;;;;;;;;;8.00;83.30;;;;;;5034413;28;19909;-85
2023/01/28 14:23:12;;;;;;;;;;;7.70;84.30;;;;;;5017562;28;19909;-86
2023/01/28 14:25:48;;;;;;;;;;;7.50;90.00;;;;;;5044529;28;20004;-86
2023/01/28 14:28:17;;;;;;;;;;;7.40;92.80;;;;;;5036568;28;19917;-85
2023/01/28 14:30:49;;;;;;;;;;;7.30;94.80;;;;;;5034285;28;19910;-84
2023/01/28 14:33:14;;;;;;;;;;;7.20;93.30;;;;;;5037282;28;20270;-83
2023/01/28 14:35:43;;;;;;;;;;;7.00;93.30;;;;;;5069933;28;19963;-85
2023/01/28 14:38:12;;;;;;;;;;;6.80;93.90;;;;;;5042702;28;19908;-84
2023/01/28 14:40:38;;;;;;;;;;;6.80;96.20;;;;;;5055813;28;19920;-85
2023/01/28 14:43:11;;;;;;;;;;;6.90;96.00;;;;;;5043375;28;19912;-84
2023/01/28 14:45:37;;;;;;;;;;;6.90;95.30;;;;;;5060090;28;20366;-84
2023/01/28 14:48:21;;;;;;;;;;;6.90;95.60;;;;;;5057935;28;19923;-84
2023/01/28 14:50:56;;;;;;;;;;;6.80;96.00;;;;;;5035154;28;19913;-84
2023/01/28 14:53:24;;;;;;;;;;;7.00;98.00;;;;;;5068448;28;19913;-85
2023/01/28 14:56:08;;;;;;;;;;;6.90;97.00;;;;;;5057744;28;19920;-84
2023/01/28 14:58:40;;;;;;;;;;;6.80;96.80;;;;;;5056636;28;19908;-84
2023/01/28 15:01:18;;;;;;;;;;;6.70;98.30;;;;;;5054513;28;19927;-84
2023/01/28 15:03:58;;;;;;;;;;;6.70;99.20;;;;;;5091937;28;20004;-83
2023/01/28 15:06:28;;;;;;;;;;;6.70;99.10;;;;;;5073114;28;19962;-84
2023/01/28 15:09:04;;;;;;;;;;;6.50;98.70;;;;;;5091307;28;20003;-83
2023/01/28 15:11:29;;;;;;;;;;;6.40;99.60;;;;;;5090945;28;20544;-83
2023/01/28 15:13:56;;;;;;;;;;;6.30;99.90;;;;;;5073130;28;19908;-83
2023/01/28 15:16:27;;;;;;;;;;;6.10;99.90;;;;;;5072840;28;19952;-83
2023/01/28 15:18:54;;;;;;;;;;;5.90;99.90;;;;;;5073761;28;19920;-83
2023/01/28 15:21:20;;;;;;;;;;;5.60;99.90;;;;;;5091505;28;19920;-83
2023/01/28 15:23:52;;;;;;;;;;;5.40;99.90;;;;;;5091175;28;19920;-83
2023/01/28 15:26:19;;;;;;;;;;;5.30;99.90;;;;;;5073727;28;19935;-83
2023/01/28 15:28:45;;;;;;;;;;;5.10;99.90;;;;;;5092377;28;19908;-84
2023/01/28 15:31:40;;;;;;;;;;;4.90;99.90;;;;;;5073680;28;19919;-84
2023/01/28 15:34:11;;;;;;;;;;;4.80;99.90;;;;;;5089226;28;19908;-83
2023/01/28 15:36:36;;;;;;;;;;;4.70;99.90;;;;;;5074340;28;19916;-84
2023/01/28 15:39:02;;;;;;;;;;;4.60;99.90;;;;;;5074713;28;20385;-84
2023/01/28 15:41:31;;;;;;;;;;;4.50;99.90;;;;;;5073526;28;19909;-83
2023/01/28 15:43:56;;;;;;;;;;;4.40;99.90;;;;;;5074371;28;19912;-84
2023/01/28 15:46:22;;;;;;;;;;;4.30;99.90;;;;;;5092805;28;19908;-84
2023/01/28 15:48:51;;;;;;;;;;;4.20;99.90;;;;;;5073466;28;19909;-84
2023/01/28 15:51:19;;;;;;;;;;;4.10;99.90;;;;;;5073346;28;19912;-82
2023/01/28 15:53:46;;;;;;;;;;;4.00;99.90;;;;;;5091781;28;20287;-83
2023/01/28 15:56:13;;;;;;;;;;;3.80;99.90;;;;;;5079411;28;19912;-83
2023/01/28 15:58:41;;;;;;;;;;;3.70;99.90;;;;;;5093023;28;19908;-83